Time;durP1;ratioP1;P1;durP2;ratioP2;P2;SDS_P1;SDS_P2;PMS_P1;PMS_P2;Temp;Humidity;BMP_temperature;BMP_pressure;BME280_temperature;BME280_humidity;BME280_pressure;Samples;Min_cycle;Max_cycle;Signal;HPM_P1;HPM_P2
2023/01/14 00:00:25;;;;;;;548.73;286.70;;;;;;;;;;4999327;28;20442;-51
2023/01/14 00:02:52;;;;;;;574.03;308.87;;;;;;;;;;4965562;28;20717;-50
2023/01/14 00:05:18;;;;;;;558.60;302.67;;;;;;;;;;4951546;28;20319;-52
2023/01/14 00:07:44;;;;;;;577.37;311.73;;;;;;;;;;4948640;28;20194;-51
2023/01/14 00:10:10;;;;;;;574.37;311.43;;;;;;;;;;4946848;28;20502;-52
2023/01/14 00:12:36;;;;;;;573.83;311.97;;;;;;;;;;4954097;28;20233;-52
2023/01/14 00:15:03;;;;;;;629.07;351.97;;;;;;;;;;4959955;28;20322;-51
2023/01/14 00:17:29;;;;;;;542.70;289.03;;;;;;;;;;4961192;28;20333;-52
2023/01/14 00:19:54;;;;;;;599.37;322.67;;;;;;;;;;4977477;28;20210;-51
2023/01/14 00:22:21;;;;;;;562.50;312.90;;;;;;;;;;4966711;28;20336;-51
2023/01/14 00:24:47;;;;;;;554.17;298.67;;;;;;;;;;4958545;28;20326;-51
2023/01/14 00:27:15;;;;;;;581.53;314.03;;;;;;;;;;4963945;28;20221;-52
2023/01/14 00:29:41;;;;;;;595.10;325.97;;;;;;;;;;4960137;28;21726;-51
2023/01/14 00:32:07;;;;;;;575.00;315.80;;;;;;;;;;4944637;28;20218;-51
2023/01/14 00:34:36;;;;;;;611.23;343.87;;;;;;;;;;4956029;28;20213;-51
2023/01/14 00:37:02;;;;;;;554.43;302.50;;;;;;;;;;4979381;28;20227;-51
2023/01/14 00:39:28;;;;;;;569.80;311.13;;;;;;;;;;4963961;28;20297;-56
2023/01/14 00:41:54;;;;;;;583.00;326.43;;;;;;;;;;4962396;28;21223;-52
2023/01/14 00:44:20;;;;;;;531.87;286.13;;;;;;;;;;4956029;28;20542;-52
2023/01/14 00:46:47;;;;;;;505.33;269.07;;;;;;;;;;4960391;28;20681;-52
2023/01/14 00:49:17;;;;;;;523.17;288.23;;;;;;;;;;4947831;28;20189;-52
2023/01/14 00:51:43;;;;;;;541.50;282.70;;;;;;;;;;4969252;28;20365;-52
2023/01/14 00:54:10;;;;;;;566.73;306.87;;;;;;;;;;4955867;28;20260;-52
2023/01/14 00:56:36;;;;;;;553.03;302.23;;;;;;;;;;4955495;28;20263;-52
2023/01/14 00:59:02;;;;;;;548.97;302.13;;;;;;;;;;4944306;28;20227;-51
2023/01/14 01:01:28;;;;;;;572.40;318.70;;;;;;;;;;4955393;28;20207;-52
2023/01/14 01:03:55;;;;;;;561.87;308.70;;;;;;;;;;4948929;28;20229;-52
2023/01/14 01:06:22;;;;;;;629.10;358.03;;;;;;;;;;4933349;28;20232;-51
2023/01/14 01:08:49;;;;;;;573.40;329.63;;;;;;;;;;4939395;28;20218;-53
2023/01/14 01:11:16;;;;;;;552.00;297.67;;;;;;;;;;4940858;28;20252;-53
2023/01/14 01:13:42;;;;;;;621.47;352.13;;;;;;;;;;4937025;28;20225;-52
2023/01/14 01:16:12;;;;;;;524.23;286.33;;;;;;;;;;4945757;28;20398;-51
2023/01/14 01:18:38;;;;;;;564.70;307.00;;;;;;;;;;4956055;28;20214;-52
2023/01/14 01:21:05;;;;;;;541.13;292.17;;;;;;;;;;4939911;28;20279;-51
2023/01/14 01:23:31;;;;;;;541.57;295.33;;;;;;;;;;4944781;28;20431;-51
2023/01/14 01:26:05;;;;;;;500.33;264.30;;;;;;;;;;4942805;28;20493;-53
2023/01/14 01:28:32;;;;;;;548.60;293.43;;;;;;;;;;4936940;28;20210;-51
2023/01/14 01:31:02;;;;;;;561.93;314.13;;;;;;;;;;4942180;28;20227;-52
2023/01/14 01:33:29;;;;;;;575.33;326.67;;;;;;;;;;4948632;28;20291;-53
2023/01/14 01:36:08;;;;;;;558.77;298.77;;;;;;;;;;4958603;28;20252;-52
2023/01/14 01:38:34;;;;;;;555.90;308.40;;;;;;;;;;4976973;28;20824;-51
2023/01/14 01:41:01;;;;;;;554.30;308.40;;;;;;;;;;4943571;28;20769;-52
2023/01/14 01:43:29;;;;;;;574.27;313.43;;;;;;;;;;4945062;28;20263;-52
2023/01/14 01:45:56;;;;;;;551.17;303.97;;;;;;;;;;4952050;28;20218;-51
2023/01/14 01:48:24;;;;;;;596.13;333.93;;;;;;;;;;4947316;28;20232;-53
2023/01/14 01:50:53;;;;;;;572.57;317.20;;;;;;;;;;4942735;28;20535;-51
2023/01/14 01:53:20;;;;;;;515.27;279.87;;;;;;;;;;4944487;28;20230;-53
2023/01/14 01:55:49;;;;;;;543.60;287.90;;;;;;;;;;4955250;28;20564;-51
2023/01/14 01:58:15;;;;;;;554.80;299.17;;;;;;;;;;4937400;28;21107;-51
2023/01/14 02:00:41;;;;;;;519.27;287.07;;;;;;;;;;4958800;28;20220;-51
2023/01/14 02:03:10;;;;;;;504.63;267.03;;;;;;;;;;4942582;28;20724;-50
2023/01/14 02:05:36;;;;;;;564.27;317.73;;;;;;;;;;4935193;28;20226;-51
2023/01/14 02:08:02;;;;;;;602.97;339.27;;;;;;;;;;4943368;28;20274;-51
2023/01/14 02:10:47;;;;;;;559.50;306.20;;;;;;;;;;4941641;28;20237;-51
2023/01/14 02:13:27;;;;;;;541.07;291.60;;;;;;;;;;4945042;28;20215;-51
2023/01/14 02:15:59;;;;;;;594.93;333.97;;;;;;;;;;4953652;28;20765;-50
2023/01/14 02:18:45;;;;;;;586.40;327.93;;;;;;;;;;4946616;28;20264;-50
2023/01/14 02:21:14;;;;;;;585.50;327.07;;;;;;;;;;4945387;28;20224;-50
2023/01/14 02:23:56;;;;;;;511.27;281.23;;;;;;;;;;4958027;28;20313;-50
2023/01/14 02:26:32;;;;;;;588.43;324.93;;;;;;;;;;4950229;28;21325;-51
2023/01/14 02:29:12;;;;;;;506.10;282.43;;;;;;;;;;4950317;28;20570;-50
2023/01/14 02:31:59;;;;;;;610.70;344.77;;;;;;;;;;4933710;28;20302;-51
2023/01/14 02:34:34;;;;;;;553.33;300.30;;;;;;;;;;4941038;28;20269;-52
2023/01/14 02:37:08;;;;;;;538.63;289.87;;;;;;;;;;4947201;28;20206;-51
2023/01/14 02:39:40;;;;;;;547.00;294.00;;;;;;;;;;4951456;28;20240;-51
2023/01/14 02:45:01;;;;;;;572.63;325.00;;;;;;;;;;4933275;28;20768;-51
2023/01/14 02:47:27;;;;;;;525.67;288.30;;;;;;;;;;4950818;28;20223;-52
2023/01/14 02:49:55;;;;;;;570.30;319.00;;;;;;;;;;4938149;28;20216;-51
2023/01/14 02:52:22;;;;;;;527.87;289.03;;;;;;;;;;4950151;28;20206;-51
2023/01/14 02:55:11;;;;;;;488.83;264.63;;;;;;;;;;4941878;28;20663;-52
2023/01/14 02:58:01;;;;;;;480.53;264.37;;;;;;;;;;4956153;28;20278;-52
2023/01/14 03:00:36;;;;;;;442.87;239.73;;;;;;;;;;4952682;28;20372;-51
2023/01/14 03:03:11;;;;;;;441.17;246.27;;;;;;;;;;4948216;28;20221;-51
2023/01/14 03:05:46;;;;;;;471.37;262.57;;;;;;;;;;4969495;28;20229;-51
2023/01/14 03:08:23;;;;;;;468.30;261.83;;;;;;;;;;4954003;28;20217;-51
2023/01/14 03:10:55;;;;;;;477.00;268.70;;;;;;;;;;4945651;28;20526;-52
2023/01/14 03:13:21;;;;;;;412.43;230.00;;;;;;;;;;4953537;28;20586;-51
2023/01/14 03:15:55;;;;;;;452.40;256.30;;;;;;;;;;4937418;28;20589;-53
2023/01/14 03:18:27;;;;;;;454.53;250.17;;;;;;;;;;4945491;28;20322;-52
2023/01/14 03:20:56;;;;;;;441.40;235.80;;;;;;;;;;4972692;22;20624;-47
2023/01/14 03:23:24;;;;;;;336.63;175.10;;;;;;;;;;5046312;28;20483;-49
2023/01/14 03:25:52;;;;;;;400.97;211.33;;;;;;;;;;4945618;28;20191;-49
2023/01/14 03:28:21;;;;;;;362.10;189.90;;;;;;;;;;4974370;28;20264;-49
2023/01/14 03:30:57;;;;;;;437.43;235.23;;;;;;;;;;4944782;28;20223;-48
2023/01/14 03:33:30;;;;;;;387.33;205.73;;;;;;;;;;4950884;28;20244;-48
2023/01/14 03:35:57;;;;;;;397.23;212.90;;;;;;;;;;4966037;28;20237;-47
2023/01/14 03:38:28;;;;;;;370.83;195.07;;;;;;;;;;4946797;28;20218;-49
2023/01/14 03:40:56;;;;;;;396.97;218.97;;;;;;;;;;4969089;28;20809;-48
2023/01/14 03:43:41;;;;;;;353.33;186.17;;;;;;;;;;4953604;28;20243;-48
2023/01/14 03:46:08;;;;;;;406.00;217.80;;;;;;;;;;4945362;28;20344;-49
2023/01/14 03:48:35;;;;;;;349.63;184.10;;;;;;;;;;4930494;28;20557;-48
2023/01/14 03:51:01;;;;;;;400.83;214.07;;;;;;;;;;4952197;28;20217;-49
2023/01/14 03:53:35;;;;;;;346.80;180.03;;;;;;;;;;5013166;28;20298;-48
2023/01/14 03:56:23;;;;;;;369.40;192.27;;;;;;;;;;4945764;28;20213;-48
2023/01/14 03:58:52;;;;;;;394.10;210.33;;;;;;;;;;4947981;28;20923;-49
2023/01/14 04:01:20;;;;;;;393.27;217.67;;;;;;;;;;4946827;28;20427;-48
2023/01/14 04:03:47;;;;;;;398.73;206.93;;;;;;;;;;4949002;28;20547;-49
2023/01/14 04:06:14;;;;;;;409.77;224.03;;;;;;;;;;4945221;28;20222;-50
2023/01/14 04:08:43;;;;;;;358.33;193.37;;;;;;;;;;4969185;28;20224;-48
2023/01/14 04:11:10;;;;;;;352.70;184.17;;;;;;;;;;4957011;28;20222;-48
2023/01/14 04:16:21;;;;;;;432.60;228.00;;;;;;;;;;4952600;28;20221;-48
2023/01/14 04:18:47;;;;;;;412.43;218.13;;;;;;;;;;4944420;28;20547;-49
2023/01/14 04:21:14;;;;;;;393.70;214.90;;;;;;;;;;4949194;28;20495;-48
2023/01/14 04:23:40;;;;;;;406.93;215.70;;;;;;;;;;4949488;28;20253;-48
2023/01/14 04:26:06;;;;;;;369.50;196.20;;;;;;;;;;4956242;28;20273;-48
2023/01/14 04:28:33;;;;;;;393.13;211.43;;;;;;;;;;4961263;28;20193;-49
2023/01/14 04:30:59;;;;;;;416.77;218.40;;;;;;;;;;4946928;28;20218;-48
2023/01/14 04:33:25;;;;;;;350.03;186.87;;;;;;;;;;4954317;28;20510;-48
2023/01/14 04:35:54;;;;;;;436.80;236.57;;;;;;;;;;4954374;28;20307;-49
2023/01/14 04:38:23;;;;;;;418.80;225.77;;;;;;;;;;4955524;28;20214;-49
2023/01/14 04:40:50;;;;;;;393.40;214.50;;;;;;;;;;4943198;28;20325;-48
2023/01/14 04:43:23;;;;;;;439.40;227.20;;;;;;;;;;5008485;28;20191;-48
2023/01/14 04:45:53;;;;;;;375.90;202.33;;;;;;;;;;5054119;28;20214;-48
2023/01/14 04:48:20;;;;;;;354.43;190.13;;;;;;;;;;4999861;28;20616;-48
2023/01/14 04:50:50;;;;;;;364.90;192.47;;;;;;;;;;4949996;28;20237;-50
2023/01/14 04:53:20;;;;;;;368.10;198.63;;;;;;;;;;4992392;28;20219;-48
2023/01/14 04:55:47;;;;;;;403.43;213.43;;;;;;;;;;4928512;28;20270;-47
2023/01/14 04:58:15;;;;;;;365.03;190.67;;;;;;;;;;4951687;28;20219;-47
2023/01/14 05:00:43;;;;;;;400.37;208.40;;;;;;;;;;4945574;28;20210;-48
2023/01/14 05:03:10;;;;;;;342.87;177.73;;;;;;;;;;4990090;28;20309;-47
2023/01/14 05:05:37;;;;;;;416.90;218.53;;;;;;;;;;4953200;28;20681;-48
2023/01/14 05:08:05;;;;;;;379.03;198.93;;;;;;;;;;4950535;28;20653;-48
2023/01/14 05:10:31;;;;;;;359.70;191.57;;;;;;;;;;4962097;28;20358;-49
2023/01/14 05:12:58;;;;;;;383.70;212.10;;;;;;;;;;4952338;28;20666;-48
2023/01/14 05:15:25;;;;;;;399.07;211.40;;;;;;;;;;4957913;28;20218;-48
2023/01/14 05:17:52;;;;;;;383.57;209.63;;;;;;;;;;4937815;28;20223;-48
2023/01/14 05:20:18;;;;;;;411.07;219.17;;;;;;;;;;4954814;28;20720;-47
2023/01/14 05:22:45;;;;;;;408.97;218.27;;;;;;;;;;4967739;28;20271;-47
2023/01/14 05:25:12;;;;;;;381.87;209.67;;;;;;;;;;4949275;28;20182;-48
2023/01/14 05:27:38;;;;;;;420.30;228.90;;;;;;;;;;4959553;28;20294;-48
2023/01/14 05:30:04;;;;;;;352.07;189.97;;;;;;;;;;4953761;28;20218;-48
2023/01/14 05:32:31;;;;;;;425.33;222.03;;;;;;;;;;4947390;28;20214;-48
2023/01/14 05:34:57;;;;;;;406.60;220.50;;;;;;;;;;4953662;28;20241;-47
2023/01/14 05:37:23;;;;;;;424.13;226.27;;;;;;;;;;4989041;28;20190;-48
2023/01/14 05:39:49;;;;;;;401.57;213.73;;;;;;;;;;4989917;28;20717;-48
2023/01/14 05:47:48;;;;;;;346.07;187.83;;;;;;;;;;4945383;28;20276;-47
2023/01/14 05:50:15;;;;;;;434.63;233.97;;;;;;;;;;4949057;28;20687;-48
2023/01/14 05:52:41;;;;;;;390.87;219.83;;;;;;;;;;4965740;28;20311;-49
2023/01/14 05:55:07;;;;;;;408.97;214.37;;;;;;;;;;4957474;28;20233;-47
2023/01/14 05:57:34;;;;;;;411.40;221.87;;;;;;;;;;4950464;28;20218;-48
2023/01/14 06:00:00;;;;;;;398.13;213.73;;;;;;;;;;4951877;28;20219;-48
2023/01/14 06:08:01;;;;;;;429.03;228.67;;;;;;;;;;4948700;28;20481;-47
2023/01/14 06:10:28;;;;;;;423.83;223.33;;;;;;;;;;4948806;28;20574;-48
2023/01/14 06:12:57;;;;;;;422.33;223.90;;;;;;;;;;4974282;28;20223;-48
2023/01/14 06:15:23;;;;;;;386.57;215.17;;;;;;;;;;4983244;28;20288;-47
2023/01/14 06:17:58;;;;;;;392.53;210.63;;;;;;;;;;4947905;28;20225;-48
2023/01/14 06:20:27;;;;;;;425.40;227.57;;;;;;;;;;4982593;28;20237;-47
2023/01/14 06:22:55;;;;;;;423.40;233.83;;;;;;;;;;4951065;28;20277;-48
2023/01/14 06:25:21;;;;;;;361.67;196.33;;;;;;;;;;4981107;28;20744;-47
2023/01/14 06:27:47;;;;;;;351.27;189.77;;;;;;;;;;4982880;28;20218;-48
2023/01/14 06:30:14;;;;;;;381.90;209.37;;;;;;;;;;4956326;28;20268;-48
2023/01/14 06:32:41;;;;;;;372.57;198.20;;;;;;;;;;4951348;28;20218;-48
2023/01/14 06:35:12;;;;;;;393.60;212.43;;;;;;;;;;4949224;28;20222;-48
2023/01/14 06:37:38;;;;;;;359.93;185.53;;;;;;;;;;4994408;28;20190;-49
2023/01/14 06:40:05;;;;;;;363.87;195.73;;;;;;;;;;4941280;28;20238;-48
2023/01/14 06:42:31;;;;;;;368.13;199.27;;;;;;;;;;4944141;28;20336;-48
2023/01/14 06:44:57;;;;;;;416.40;229.20;;;;;;;;;;4947797;28;20444;-48
2023/01/14 06:47:23;;;;;;;431.67;232.83;;;;;;;;;;4955041;28;20301;-48
2023/01/14 06:49:49;;;;;;;357.07;190.80;;;;;;;;;;4952916;28;20235;-49
2023/01/14 06:52:15;;;;;;;380.07;206.17;;;;;;;;;;4939909;28;20210;-49
2023/01/14 06:54:51;;;;;;;357.33;197.90;;;;;;;;;;4938576;28;20245;-48
2023/01/14 06:57:18;;;;;;;403.77;222.83;;;;;;;;;;4936905;28;20291;-49
2023/01/14 06:59:45;;;;;;;445.20;244.73;;;;;;;;;;4938080;28;20227;-49
2023/01/14 07:02:14;;;;;;;419.03;224.03;;;;;;;;;;4934169;28;20301;-50
2023/01/14 07:04:42;;;;;;;449.63;246.23;;;;;;;;;;4938395;28;20250;-49
2023/01/14 07:07:08;;;;;;;432.57;235.23;;;;;;;;;;4937768;28;20373;-49
2023/01/14 07:09:34;;;;;;;446.50;239.97;;;;;;;;;;4931862;28;20368;-51
2023/01/14 07:12:01;;;;;;;442.13;243.07;;;;;;;;;;4938020;28;20388;-49
2023/01/14 07:14:27;;;;;;;442.10;234.07;;;;;;;;;;4937047;28;20226;-49
2023/01/14 07:16:54;;;;;;;417.00;229.57;;;;;;;;;;4936901;28;20203;-49
2023/01/14 07:19:20;;;;;;;439.17;239.07;;;;;;;;;;4937085;28;20254;-49
2023/01/14 07:21:46;;;;;;;414.83;223.37;;;;;;;;;;4938218;28;20242;-49
2023/01/14 07:24:12;;;;;;;423.50;236.27;;;;;;;;;;4935823;28;20219;-49
2023/01/14 07:26:39;;;;;;;444.93;240.13;;;;;;;;;;4935424;28;20380;-49
2023/01/14 07:29:06;;;;;;;450.80;239.97;;;;;;;;;;4936177;28;20289;-49
2023/01/14 07:31:32;;;;;;;443.10;243.07;;;;;;;;;;4935702;28;20199;-49
2023/01/14 07:33:59;;;;;;;424.60;227.43;;;;;;;;;;4936067;28;20234;-49
2023/01/14 07:36:25;;;;;;;401.53;212.67;;;;;;;;;;4920420;28;20219;-49
2023/01/14 07:38:51;;;;;;;390.20;205.43;;;;;;;;;;4934086;28;20308;-49
2023/01/14 07:41:18;;;;;;;446.97;245.73;;;;;;;;;;4935164;28;20259;-49
2023/01/14 07:43:47;;;;;;;424.87;231.43;;;;;;;;;;4936397;28;20264;-49
2023/01/14 07:46:13;;;;;;;463.30;249.93;;;;;;;;;;4937552;28;20249;-48
2023/01/14 07:48:40;;;;;;;409.23;224.37;;;;;;;;;;4936364;28;20654;-49
2023/01/14 07:51:10;;;;;;;451.13;245.93;;;;;;;;;;4935226;28;20271;-48
2023/01/14 07:53:36;;;;;;;415.77;232.47;;;;;;;;;;4936577;28;20255;-48
2023/01/14 07:56:03;;;;;;;431.20;234.53;;;;;;;;;;4935122;28;20237;-49
2023/01/14 07:58:30;;;;;;;419.17;222.33;;;;;;;;;;4937665;28;20167;-49
2023/01/14 08:00:59;;;;;;;390.47;215.27;;;;;;;;;;4934530;28;20445;-48
2023/01/14 08:03:26;;;;;;;448.50;239.60;;;;;;;;;;4935780;28;20219;-48
2023/01/14 08:05:52;;;;;;;408.73;218.87;;;;;;;;;;4934808;28;20215;-49
2023/01/14 08:08:18;;;;;;;441.60;237.40;;;;;;;;;;4937416;28;20624;-49
2023/01/14 08:10:45;;;;;;;409.90;223.57;;;;;;;;;;4936791;28;20274;-48
2023/01/14 08:13:12;;;;;;;392.57;211.10;;;;;;;;;;4935961;28;20503;-49
2023/01/14 08:15:38;;;;;;;408.23;212.63;;;;;;;;;;4934349;28;20241;-49
2023/01/14 08:18:04;;;;;;;396.17;221.03;;;;;;;;;;4937764;28;20299;-50
2023/01/14 08:20:31;;;;;;;457.43;261.23;;;;;;;;;;4934340;28;20243;-50
2023/01/14 08:23:01;;;;;;;410.27;217.00;;;;;;;;;;4935482;28;20252;-50
2023/01/14 08:25:28;;;;;;;494.07;270.80;;;;;;;;;;4937115;28;20194;-49
2023/01/14 08:27:54;;;;;;;413.87;224.37;;;;;;;;;;4937140;28;20630;-49
2023/01/14 08:30:21;;;;;;;443.57;244.67;;;;;;;;;;4934868;28;20519;-49
2023/01/14 08:32:50;;;;;;;381.93;210.63;;;;;;;;;;4936383;28;20480;-49
2023/01/14 08:35:16;;;;;;;432.60;233.50;;;;;;;;;;4919139;28;20722;-49
2023/01/14 08:37:42;;;;;;;469.27;257.10;;;;;;;;;;4937802;28;20629;-50
2023/01/14 08:40:09;;;;;;;445.10;241.70;;;;;;;;;;4934916;28;20179;-50
2023/01/14 08:42:35;;;;;;;495.10;272.83;;;;;;;;;;4935523;28;20780;-50
2023/01/14 08:45:04;;;;;;;461.17;245.77;;;;;;;;;;4934544;28;20290;-49
2023/01/14 08:47:31;;;;;;;477.43;262.63;;;;;;;;;;4919199;28;20632;-49
2023/01/14 08:49:57;;;;;;;495.37;270.53;;;;;;;;;;4933721;28;20303;-53
2023/01/14 08:52:23;;;;;;;557.43;302.27;;;;;;;;;;4917788;28;20390;-53
2023/01/14 08:54:49;;;;;;;521.23;296.70;;;;;;;;;;4918611;28;20677;-53
2023/01/14 08:57:16;;;;;;;456.93;251.40;;;;;;;;;;4926002;28;20226;-54
2023/01/14 08:59:42;;;;;;;476.87;267.00;;;;;;;;;;4936421;28;20829;-54
2023/01/14 09:02:12;;;;;;;517.00;293.77;;;;;;;;;;4916367;28;20320;-54
2023/01/14 09:04:38;;;;;;;458.37;250.43;;;;;;;;;;4924157;28;20306;-54
2023/01/14 09:18:04;;;;;;;462.03;247.83;;;;;;;;;;4933486;28;20522;-52
2023/01/14 09:20:32;;;;;;;394.20;198.50;;;;;;;;;;4954426;23;20233;-54
2023/01/14 09:22:58;;;;;;;416.97;208.60;;;;;;;;;;4976766;28;20221;-54
2023/01/14 09:25:25;;;;;;;378.97;189.77;;;;;;;;;;4976759;28;20449;-54
2023/01/14 09:27:51;;;;;;;347.07;177.13;;;;;;;;;;4976266;28;20366;-54
2023/01/14 09:30:17;;;;;;;367.77;187.70;;;;;;;;;;4975755;28;20209;-54
2023/01/14 09:32:44;;;;;;;449.07;229.10;;;;;;;;;;4974620;28;20300;-55
2023/01/14 09:35:11;;;;;;;427.57;212.80;;;;;;;;;;4974373;28;20596;-54
2023/01/14 09:37:37;;;;;;;400.47;204.57;;;;;;;;;;4976067;28;20640;-54
2023/01/14 09:40:06;;;;;;;422.53;211.07;;;;;;;;;;4975963;28;20170;-54
2023/01/14 09:42:37;;;;;;;348.47;183.40;;;;;;;;;;4976089;28;20282;-55
2023/01/14 09:45:03;;;;;;;427.03;219.20;;;;;;;;;;4979244;28;20363;-54
2023/01/14 09:47:30;;;;;;;444.13;225.83;;;;;;;;;;5021582;28;20239;-54
2023/01/14 09:49:59;;;;;;;389.37;197.07;;;;;;;;;;4977744;28;20291;-54
2023/01/14 09:52:39;;;;;;;460.97;230.77;;;;;;;;;;5010069;28;20697;-54
2023/01/14 09:55:05;;;;;;;413.13;208.30;;;;;;;;;;5082549;28;20283;-53
2023/01/14 09:57:34;;;;;;;386.47;201.30;;;;;;;;;;5082166;28;20209;-53
2023/01/14 10:00:03;;;;;;;398.90;202.23;;;;;;;;;;5016057;28;20290;-53
2023/01/14 10:02:45;;;;;;;382.60;196.63;;;;;;;;;;5030491;28;20338;-53
2023/01/14 10:05:23;;;;;;;381.23;191.83;;;;;;;;;;5078981;28;20210;-54
2023/01/14 10:07:49;;;;;;;443.33;225.10;;;;;;;;;;4983815;28;20540;-52
2023/01/14 10:10:23;;;;;;;500.97;271.07;;;;;;;;;;4981980;28;20188;-52
2023/01/14 10:12:51;;;;;;;501.43;269.33;;;;;;;;;;4953022;28;20301;-52
2023/01/14 10:15:35;;;;;;;478.63;257.77;;;;;;;;;;4963226;28;20277;-52
2023/01/14 10:18:10;;;;;;;443.83;232.97;;;;;;;;;;4968269;28;20209;-51
2023/01/14 10:20:40;;;;;;;498.97;263.93;;;;;;;;;;4978865;28;20354;-52
2023/01/14 10:23:15;;;;;;;394.07;202.40;;;;;;;;;;4983715;28;20810;-54
2023/01/14 10:25:44;;;;;;;423.93;220.03;;;;;;;;;;5033100;28;20975;-55
2023/01/14 10:28:14;;;;;;;370.20;199.07;;;;;;;;;;5028805;28;20170;-55
2023/01/14 10:30:41;;;;;;;490.70;255.53;;;;;;;;;;5024672;28;20482;-54
2023/01/14 10:33:07;;;;;;;461.63;243.47;;;;;;;;;;5013782;28;20546;-54
2023/01/14 10:35:34;;;;;;;418.60;221.17;;;;;;;;;;5000678;28;20225;-55
2023/01/14 10:38:04;;;;;;;386.87;203.67;;;;;;;;;;5038472;28;20345;-54
2023/01/14 10:40:32;;;;;;;398.27;207.97;;;;;;;;;;5079410;28;20206;-55
2023/01/14 10:43:00;;;;;;;384.17;195.23;;;;;;;;;;5042015;28;20492;-55
2023/01/14 10:45:26;;;;;;;364.97;194.73;;;;;;;;;;5045532;28;20300;-55
2023/01/14 10:47:55;;;;;;;434.57;218.00;;;;;;;;;;5047101;28;20305;-54
2023/01/14 10:50:23;;;;;;;396.53;196.67;;;;;;;;;;5016304;28;20301;-54
2023/01/14 10:52:50;;;;;;;429.00;219.67;;;;;;;;;;4998242;28;20271;-54
2023/01/14 10:55:21;;;;;;;428.40;220.43;;;;;;;;;;4991556;28;20394;-54
2023/01/14 10:57:50;;;;;;;449.10;231.50;;;;;;;;;;4973656;28;20236;-54
2023/01/14 11:00:29;;;;;;;425.03;223.70;;;;;;;;;;4973466;28;20318;-54
2023/01/14 11:02:56;;;;;;;416.80;216.33;;;;;;;;;;4973703;28;20272;-54
2023/01/14 11:05:26;;;;;;;405.20;208.97;;;;;;;;;;4977608;28;20385;-53
2023/01/14 11:07:53;;;;;;;432.30;225.50;;;;;;;;;;4977217;28;20444;-54
2023/01/14 11:10:23;;;;;;;372.70;196.13;;;;;;;;;;4981127;28;20208;-54
2023/01/14 11:12:51;;;;;;;416.83;217.07;;;;;;;;;;4969126;28;20563;-54
2023/01/14 11:15:34;;;;;;;365.63;191.50;;;;;;;;;;4976321;28;20232;-54
2023/01/14 11:18:22;;;;;;;437.83;231.40;;;;;;;;;;4976244;28;20248;-54
2023/01/14 11:21:06;;;;;;;453.90;232.80;;;;;;;;;;4978496;28;20298;-55
2023/01/14 11:23:34;;;;;;;418.53;209.73;;;;;;;;;;4971844;28;20700;-54
2023/01/14 11:26:10;;;;;;;393.37;207.20;;;;;;;;;;4974481;28;20218;-54
2023/01/14 11:28:38;;;;;;;487.27;252.20;;;;;;;;;;4971130;28;20600;-55
2023/01/14 11:31:04;;;;;;;433.23;225.90;;;;;;;;;;4964360;28;20461;-54
2023/01/14 11:33:32;;;;;;;425.57;220.63;;;;;;;;;;4973189;28;20587;-53
2023/01/14 11:35:59;;;;;;;411.70;208.50;;;;;;;;;;4971141;28;20253;-53
2023/01/14 11:38:26;;;;;;;405.73;211.20;;;;;;;;;;4972404;28;20210;-54
2023/01/14 11:43:55;;;;;;;419.97;225.80;;;;;;;;;;4977760;28;20200;-53
2023/01/14 11:46:22;;;;;;;458.80;230.07;;;;;;;;;;4977347;28;20185;-54
2023/01/14 11:49:00;;;;;;;454.77;237.63;;;;;;;;;;5018938;28;20241;-55
2023/01/14 11:51:27;;;;;;;444.03;224.90;;;;;;;;;;5015910;28;20228;-54
2023/01/14 11:53:57;;;;;;;462.00;231.57;;;;;;;;;;5027098;28;20622;-55
2023/01/14 11:56:29;;;;;;;385.97;195.50;;;;;;;;;;5006748;28;20214;-54
2023/01/14 11:58:55;;;;;;;427.77;217.33;;;;;;;;;;5025734;28;20218;-54
2023/01/14 12:01:39;;;;;;;395.67;202.57;;;;;;;;;;4992411;28;20174;-54
2023/01/14 12:04:15;;;;;;;434.63;227.30;;;;;;;;;;5008586;28;20214;-54
2023/01/14 12:06:54;;;;;;;442.27;229.40;;;;;;;;;;5011237;28;20220;-54
2023/01/14 12:09:27;;;;;;;499.83;280.73;;;;;;;;;;5027908;28;20221;-52
2023/01/14 12:11:58;;;;;;;523.03;280.03;;;;;;;;;;4975895;28;20226;-53
2023/01/14 12:17:34;;;;;;;486.23;251.90;;;;;;;;;;5036840;28;20290;-54
2023/01/14 12:20:23;;;;;;;412.03;216.47;;;;;;;;;;5033515;28;20595;-55
2023/01/14 12:22:52;;;;;;;435.30;226.43;;;;;;;;;;5002497;28;20221;-54
2023/01/14 12:25:23;;;;;;;442.93;233.77;;;;;;;;;;5049654;28;20621;-54
2023/01/14 12:28:00;;;;;;;418.13;216.77;;;;;;;;;;5001122;28;20328;-54
2023/01/14 12:30:29;;;;;;;400.20;209.63;;;;;;;;;;4992604;28;20205;-54
2023/01/14 12:33:02;;;;;;;434.53;226.63;;;;;;;;;;5011506;28;20209;-55
2023/01/14 12:35:30;;;;;;;473.33;244.87;;;;;;;;;;5016916;28;20498;-54
2023/01/14 12:37:59;;;;;;;406.90;215.93;;;;;;;;;;5033324;28;20221;-54
2023/01/14 12:46:07;;;;;;;434.27;221.57;;;;;;;;;;5030944;28;20756;-54
2023/01/14 12:48:34;;;;;;;421.67;219.93;;;;;;;;;;5011757;28;20217;-54
2023/01/14 12:51:02;;;;;;;272.87;144.10;;;;;;;;;;5025971;28;20221;-53
2023/01/14 12:53:28;;;;;;;223.40;122.37;;;;;;;;;;5001224;28;20688;-53
2023/01/14 12:55:56;;;;;;;218.20;117.57;;;;;;;;;;5030971;28;20202;-54
2023/01/14 12:58:23;;;;;;;248.10;135.70;;;;;;;;;;5060008;28;20264;-54
2023/01/14 13:00:51;;;;;;;233.03;126.60;;;;;;;;;;5038447;28;20245;-53
2023/01/14 13:03:24;;;;;;;228.70;122.20;;;;;;;;;;5007553;28;20224;-54
2023/01/14 13:05:53;;;;;;;242.73;130.33;;;;;;;;;;5040762;28;20225;-54
2023/01/14 13:08:27;;;;;;;240.53;130.60;;;;;;;;;;5018361;28;20209;-54
2023/01/14 13:10:59;;;;;;;237.27;131.80;;;;;;;;;;5044734;28;20209;-54
2023/01/14 13:13:25;;;;;;;218.17;121.37;;;;;;;;;;5049177;28;20209;-54
2023/01/14 13:15:51;;;;;;;222.43;123.43;;;;;;;;;;5019933;28;20222;-53
2023/01/14 13:18:35;;;;;;;231.00;129.87;;;;;;;;;;5045805;28;20300;-54
2023/01/14 13:21:09;;;;;;;223.67;123.43;;;;;;;;;;5033880;28;20230;-54
2023/01/14 13:23:44;;;;;;;203.80;113.17;;;;;;;;;;5067371;28;20206;-53
2023/01/14 13:26:18;;;;;;;218.93;118.80;;;;;;;;;;5017358;28;20231;-54
2023/01/14 13:29:03;;;;;;;258.53;136.63;;;;;;;;;;5012475;28;20195;-53
2023/01/14 13:31:36;;;;;;;208.03;117.73;;;;;;;;;;5028229;28;20190;-54
2023/01/14 13:34:21;;;;;;;232.23;126.10;;;;;;;;;;5049704;28;20225;-53
2023/01/14 13:36:47;;;;;;;220.43;121.67;;;;;;;;;;5029411;28;20216;-53
2023/01/14 13:39:18;;;;;;;226.13;125.23;;;;;;;;;;5021108;28;20206;-53
2023/01/14 13:41:45;;;;;;;199.00;109.63;;;;;;;;;;5035020;28;20643;-53
2023/01/14 13:44:23;;;;;;;224.40;125.13;;;;;;;;;;5027373;28;20680;-52
2023/01/14 13:46:51;;;;;;;223.50;126.00;;;;;;;;;;5031593;28;20184;-54
2023/01/14 13:49:25;;;;;;;220.47;122.50;;;;;;;;;;5006992;28;20182;-53
2023/01/14 13:51:51;;;;;;;230.30;126.27;;;;;;;;;;5026776;28;20570;-53
2023/01/14 13:54:19;;;;;;;223.30;121.60;;;;;;;;;;5037354;28;20241;-53
2023/01/14 13:56:47;;;;;;;219.00;120.63;;;;;;;;;;5017913;28;20286;-54
2023/01/14 13:59:21;;;;;;;221.77;123.83;;;;;;;;;;5018088;28;20213;-53
2023/01/14 14:01:48;;;;;;;238.00;129.37;;;;;;;;;;5012384;28;20205;-54
2023/01/14 14:04:34;;;;;;;193.03;111.90;;;;;;;;;;5017627;28;20186;-54
2023/01/14 14:07:00;;;;;;;222.53;124.60;;;;;;;;;;4980195;28;20244;-53
2023/01/14 14:09:36;;;;;;;248.87;138.17;;;;;;;;;;4985315;28;20660;-53
2023/01/14 14:14:03;;;;;;;212.00;119.37;;;;;;;;;;4987004;28;20223;-53
2023/01/14 14:14:58;;;;;;;222.53;120.57;;;;;;;;;;4985100;28;20256;-54
2023/01/14 14:17:34;;;;;;;223.27;120.27;;;;;;;;;;4974158;28;20249;-54
2023/01/14 14:20:02;;;;;;;231.13;129.00;;;;;;;;;;5010188;28;20684;-54
2023/01/14 14:22:34;;;;;;;228.43;123.17;;;;;;;;;;4978732;28;20218;-53
2023/01/14 14:25:06;;;;;;;211.23;118.00;;;;;;;;;;4976923;28;20304;-53
2023/01/14 14:27:43;;;;;;;217.47;122.53;;;;;;;;;;4972708;28;20206;-54
2023/01/14 14:30:12;;;;;;;223.10;123.90;;;;;;;;;;5010603;28;20793;-54
2023/01/14 14:32:40;;;;;;;208.27;115.10;;;;;;;;;;4979172;28;20213;-53
2023/01/14 14:35:07;;;;;;;219.37;125.23;;;;;;;;;;4983175;28;20251;-54
2023/01/14 14:37:34;;;;;;;207.47;118.73;;;;;;;;;;4979726;28;20423;-54
2023/01/14 14:40:05;;;;;;;388.17;192.13;;;;;;;;;;4981812;28;20591;-54
2023/01/14 14:42:33;;;;;;;394.07;208.13;;;;;;;;;;4998555;28;20222;-55